sensor_id;sensor_type;location;lat;lon;timestamp;P1;durP1;ratioP1;P2;durP2;ratioP2
21444;SDS011;10883;51.946;20.140;2022-12-04T00:00:53;95.70;;;31.87;;
21444;SDS011;10883;51.946;20.140;2022-12-04T00:03:19;105.90;;;31.17;;
21444;SDS011;10883;51.946;20.140;2022-12-04T00:05:45;114.18;;;33.25;;
21444;SDS011;10883;51.946;20.140;2022-12-04T00:08:11;103.47;;;32.03;;
21444;SDS011;10883;51.946;20.140;2022-12-04T00:10:40;94.07;;;29.40;;
21444;SDS011;10883;51.946;20.140;2022-12-04T00:13:07;101.82;;;29.70;;
21444;SDS011;10883;51.946;20.140;2022-12-04T00:15:33;99.30;;;32.30;;
21444;SDS011;10883;51.946;20.140;2022-12-04T00:17:59;103.00;;;32.07;;
21444;SDS011;10883;51.946;20.140;2022-12-04T00:20:25;96.33;;;31.07;;
21444;SDS011;10883;51.946;20.140;2022-12-04T00:22:51;98.40;;;29.77;;
21444;SDS011;10883;51.946;20.140;2022-12-04T00:25:17;100.83;;;30.07;;
21444;SDS011;10883;51.946;20.140;2022-12-04T00:27:43;101.50;;;30.20;;
21444;SDS011;10883;51.946;20.140;2022-12-04T00:30:08;100.23;;;31.97;;
21444;SDS011;10883;51.946;20.140;2022-12-04T00:32:35;99.05;;;28.48;;
21444;SDS011;10883;51.946;20.140;2022-12-04T00:35:01;97.83;;;31.87;;
21444;SDS011;10883;51.946;20.140;2022-12-04T00:37:27;98.88;;;30.65;;
21444;SDS011;10883;51.946;20.140;2022-12-04T00:39:53;98.50;;;32.90;;
21444;SDS011;10883;51.946;20.140;2022-12-04T00:42:19;105.03;;;31.50;;
21444;SDS011;10883;51.946;20.140;2022-12-04T00:44:44;95.20;;;29.37;;
21444;SDS011;10883;51.946;20.140;2022-12-04T00:47:10;88.70;;;29.08;;
21444;SDS011;10883;51.946;20.140;2022-12-04T00:49:36;88.67;;;28.20;;
21444;SDS011;10883;51.946;20.140;2022-12-04T00:52:02;101.50;;;32.43;;
21444;SDS011;10883;51.946;20.140;2022-12-04T00:54:28;100.30;;;32.33;;
21444;SDS011;10883;51.946;20.140;2022-12-04T00:56:55;104.70;;;30.37;;
21444;SDS011;10883;51.946;20.140;2022-12-04T00:59:21;97.47;;;29.53;;
21444;SDS011;10883;51.946;20.140;2022-12-04T01:01:46;84.53;;;28.33;;
21444;SDS011;10883;51.946;20.140;2022-12-04T01:04:12;101.57;;;29.67;;
21444;SDS011;10883;51.946;20.140;2022-12-04T01:06:38;103.83;;;31.33;;
21444;SDS011;10883;51.946;20.140;2022-12-04T01:09:04;90.88;;;27.88;;
21444;SDS011;10883;51.946;20.140;2022-12-04T01:11:30;85.40;;;27.65;;
21444;SDS011;10883;51.946;20.140;2022-12-04T01:13:57;89.90;;;29.43;;
21444;SDS011;10883;51.946;20.140;2022-12-04T01:16:27;91.47;;;29.73;;
21444;SDS011;10883;51.946;20.140;2022-12-04T01:18:58;92.05;;;29.60;;
21444;SDS011;10883;51.946;20.140;2022-12-04T01:21:24;102.25;;;31.08;;
21444;SDS011;10883;51.946;20.140;2022-12-04T01:23:50;102.93;;;31.48;;
21444;SDS011;10883;51.946;20.140;2022-12-04T01:26:16;100.27;;;30.83;;
21444;SDS011;10883;51.946;20.140;2022-12-04T01:28:42;79.32;;;27.63;;
21444;SDS011;10883;51.946;20.140;2022-12-04T01:31:12;93.83;;;27.47;;
21444;SDS011;10883;51.946;20.140;2022-12-04T01:33:40;88.20;;;28.45;;
21444;SDS011;10883;51.946;20.140;2022-12-04T01:36:08;87.87;;;28.73;;
21444;SDS011;10883;51.946;20.140;2022-12-04T01:38:36;79.40;;;27.02;;
21444;SDS011;10883;51.946;20.140;2022-12-04T01:41:03;100.00;;;28.97;;
21444;SDS011;10883;51.946;20.140;2022-12-04T01:43:30;99.33;;;29.07;;
21444;SDS011;10883;51.946;20.140;2022-12-04T01:45:57;99.60;;;29.05;;
21444;SDS011;10883;51.946;20.140;2022-12-04T01:51:17;82.97;;;28.40;;
21444;SDS011;10883;51.946;20.140;2022-12-04T01:53:59;103.00;;;27.70;;
21444;SDS011;10883;51.946;20.140;2022-12-04T01:56:32;109.13;;;31.43;;
21444;SDS011;10883;51.946;20.140;2022-12-04T01:59:13;96.27;;;28.60;;
21444;SDS011;10883;51.946;20.140;2022-12-04T02:01:43;98.45;;;28.48;;
21444;SDS011;10883;51.946;20.140;2022-12-04T02:04:18;97.90;;;29.93;;
21444;SDS011;10883;51.946;20.140;2022-12-04T02:06:44;107.93;;;30.30;;
21444;SDS011;10883;51.946;20.140;2022-12-04T02:09:09;94.60;;;30.27;;
21444;SDS011;10883;51.946;20.140;2022-12-04T02:11:45;90.20;;;28.20;;
21444;SDS011;10883;51.946;20.140;2022-12-04T02:14:32;98.50;;;29.25;;
21444;SDS011;10883;51.946;20.140;2022-12-04T02:17:25;94.30;;;27.90;;
21444;SDS011;10883;51.946;20.140;2022-12-04T02:19:56;99.67;;;29.43;;
21444;SDS011;10883;51.946;20.140;2022-12-04T02:28:07;100.90;;;33.33;;
21444;SDS011;10883;51.946;20.140;2022-12-04T02:30:38;100.28;;;30.48;;
21444;SDS011;10883;51.946;20.140;2022-12-04T02:33:11;102.20;;;30.17;;
21444;SDS011;10883;51.946;20.140;2022-12-04T02:36:18;101.27;;;31.57;;
21444;SDS011;10883;51.946;20.140;2022-12-04T02:38:52;95.87;;;30.03;;
21444;SDS011;10883;51.946;20.140;2022-12-04T02:41:29;93.70;;;28.30;;
21444;SDS011;10883;51.946;20.140;2022-12-04T02:44:06;98.30;;;28.30;;
21444;SDS011;10883;51.946;20.140;2022-12-04T02:46:37;105.30;;;30.20;;
21444;SDS011;10883;51.946;20.140;2022-12-04T02:49:07;98.87;;;28.13;;
21444;SDS011;10883;51.946;20.140;2022-12-04T02:51:40;95.40;;;29.13;;
21444;SDS011;10883;51.946;20.140;2022-12-04T02:54:11;102.70;;;27.10;;
21444;SDS011;10883;51.946;20.140;2022-12-04T02:56:43;93.50;;;26.33;;
21444;SDS011;10883;51.946;20.140;2022-12-04T02:59:30;98.80;;;29.47;;
21444;SDS011;10883;51.946;20.140;2022-12-04T03:02:10;101.30;;;30.23;;
21444;SDS011;10883;51.946;20.140;2022-12-04T03:04:44;99.27;;;30.07;;
21444;SDS011;10883;51.946;20.140;2022-12-04T03:07:16;98.38;;;29.83;;
21444;SDS011;10883;51.946;20.140;2022-12-04T03:09:50;92.80;;;29.30;;
21444;SDS011;10883;51.946;20.140;2022-12-04T03:15:21;90.95;;;28.77;;
21444;SDS011;10883;51.946;20.140;2022-12-04T03:17:57;88.87;;;27.27;;
21444;SDS011;10883;51.946;20.140;2022-12-04T03:20:28;87.17;;;26.63;;
21444;SDS011;10883;51.946;20.140;2022-12-04T03:22:58;102.97;;;29.40;;
21444;SDS011;10883;51.946;20.140;2022-12-04T03:28:26;94.03;;;28.67;;
21444;SDS011;10883;51.946;20.140;2022-12-04T03:30:58;104.90;;;31.17;;
21444;SDS011;10883;51.946;20.140;2022-12-04T03:33:31;95.13;;;26.90;;
21444;SDS011;10883;51.946;20.140;2022-12-04T03:38:56;98.60;;;28.33;;
21444;SDS011;10883;51.946;20.140;2022-12-04T03:41:46;93.47;;;31.73;;
21444;SDS011;10883;51.946;20.140;2022-12-04T03:44:34;102.40;;;31.47;;
21444;SDS011;10883;51.946;20.140;2022-12-04T03:47:34;103.30;;;31.07;;
21444;SDS011;10883;51.946;20.140;2022-12-04T03:50:27;92.33;;;27.10;;
21444;SDS011;10883;51.946;20.140;2022-12-04T03:56:37;96.47;;;29.37;;
21444;SDS011;10883;51.946;20.140;2022-12-04T03:58:48;83.87;;;27.43;;
21444;SDS011;10883;51.946;20.140;2022-12-04T04:01:20;86.53;;;27.63;;
21444;SDS011;10883;51.946;20.140;2022-12-04T04:03:49;101.77;;;29.93;;
21444;SDS011;10883;51.946;20.140;2022-12-04T04:06:19;101.37;;;29.07;;
21444;SDS011;10883;51.946;20.140;2022-12-04T04:08:54;84.15;;;28.75;;
21444;SDS011;10883;51.946;20.140;2022-12-04T04:11:26;94.87;;;30.40;;
21444;SDS011;10883;51.946;20.140;2022-12-04T04:14:01;85.33;;;26.93;;
21444;SDS011;10883;51.946;20.140;2022-12-04T04:16:58;101.60;;;30.60;;
21444;SDS011;10883;51.946;20.140;2022-12-04T04:19:49;93.83;;;29.50;;
21444;SDS011;10883;51.946;20.140;2022-12-04T04:22:41;86.87;;;29.00;;
21444;SDS011;10883;51.946;20.140;2022-12-04T04:25:26;93.37;;;29.30;;
21444;SDS011;10883;51.946;20.140;2022-12-04T04:27:54;83.50;;;29.40;;
21444;SDS011;10883;51.946;20.140;2022-12-04T04:30:21;91.45;;;27.92;;
21444;SDS011;10883;51.946;20.140;2022-12-04T04:43:57;79.90;;;27.77;;
21444;SDS011;10883;51.946;20.140;2022-12-04T04:46:45;75.53;;;26.77;;
21444;SDS011;10883;51.946;20.140;2022-12-04T04:49:16;79.87;;;29.23;;
21444;SDS011;10883;51.946;20.140;2022-12-04T04:51:46;69.00;;;23.90;;
21444;SDS011;10883;51.946;20.140;2022-12-04T04:54:12;82.10;;;25.90;;
21444;SDS011;10883;51.946;20.140;2022-12-04T04:56:41;80.60;;;25.90;;
21444;SDS011;10883;51.946;20.140;2022-12-04T04:59:09;83.53;;;26.63;;
21444;SDS011;10883;51.946;20.140;2022-12-04T05:01:35;79.57;;;25.23;;
21444;SDS011;10883;51.946;20.140;2022-12-04T05:04:03;83.83;;;27.43;;
21444;SDS011;10883;51.946;20.140;2022-12-04T05:06:30;77.73;;;26.87;;
21444;SDS011;10883;51.946;20.140;2022-12-04T05:08:56;76.67;;;25.80;;
21444;SDS011;10883;51.946;20.140;2022-12-04T05:11:22;79.95;;;25.95;;
21444;SDS011;10883;51.946;20.140;2022-12-04T05:13:47;83.70;;;26.87;;
21444;SDS011;10883;51.946;20.140;2022-12-04T05:16:14;71.90;;;24.92;;
21444;SDS011;10883;51.946;20.140;2022-12-04T05:18:40;72.17;;;24.00;;
21444;SDS011;10883;51.946;20.140;2022-12-04T05:21:26;69.23;;;22.57;;
21444;SDS011;10883;51.946;20.140;2022-12-04T05:23:52;75.47;;;24.37;;
21444;SDS011;10883;51.946;20.140;2022-12-04T05:26:17;64.50;;;22.90;;
21444;SDS011;10883;51.946;20.140;2022-12-04T05:28:43;59.40;;;22.03;;
21444;SDS011;10883;51.946;20.140;2022-12-04T05:31:09;64.47;;;22.37;;
21444;SDS011;10883;51.946;20.140;2022-12-04T05:33:35;60.97;;;21.83;;
21444;SDS011;10883;51.946;20.140;2022-12-04T05:36:03;63.83;;;23.30;;
21444;SDS011;10883;51.946;20.140;2022-12-04T05:38:30;58.47;;;20.23;;
21444;SDS011;10883;51.946;20.140;2022-12-04T05:40:57;59.30;;;23.03;;
21444;SDS011;10883;51.946;20.140;2022-12-04T05:43:23;59.33;;;22.67;;
21444;SDS011;10883;51.946;20.140;2022-12-04T05:45:49;61.93;;;23.10;;
21444;SDS011;10883;51.946;20.140;2022-12-04T05:48:15;59.87;;;21.70;;
21444;SDS011;10883;51.946;20.140;2022-12-04T05:50:41;59.53;;;22.20;;
21444;SDS011;10883;51.946;20.140;2022-12-04T05:53:06;59.38;;;22.02;;
21444;SDS011;10883;51.946;20.140;2022-12-04T05:55:32;56.03;;;20.53;;
21444;SDS011;10883;51.946;20.140;2022-12-04T05:57:58;58.20;;;20.83;;
21444;SDS011;10883;51.946;20.140;2022-12-04T06:00:24;60.38;;;21.98;;
21444;SDS011;10883;51.946;20.140;2022-12-04T06:02:50;61.10;;;22.07;;
21444;SDS011;10883;51.946;20.140;2022-12-04T06:05:15;60.70;;;22.37;;
21444;SDS011;10883;51.946;20.140;2022-12-04T06:07:41;54.87;;;20.30;;
21444;SDS011;10883;51.946;20.140;2022-12-04T06:10:07;50.27;;;19.93;;
21444;SDS011;10883;51.946;20.140;2022-12-04T06:12:33;53.63;;;21.43;;
21444;SDS011;10883;51.946;20.140;2022-12-04T06:14:59;54.80;;;21.27;;
21444;SDS011;10883;51.946;20.140;2022-12-04T06:17:24;58.77;;;21.33;;
21444;SDS011;10883;51.946;20.140;2022-12-04T06:19:50;62.27;;;20.90;;
21444;SDS011;10883;51.946;20.140;2022-12-04T06:22:17;64.67;;;21.80;;
21444;SDS011;10883;51.946;20.140;2022-12-04T06:24:43;64.30;;;23.77;;
21444;SDS011;10883;51.946;20.140;2022-12-04T06:27:09;71.20;;;24.40;;
21444;SDS011;10883;51.946;20.140;2022-12-04T06:29:35;62.93;;;22.97;;
21444;SDS011;10883;51.946;20.140;2022-12-04T06:32:01;64.57;;;23.70;;
21444;SDS011;10883;51.946;20.140;2022-12-04T06:34:27;69.07;;;23.23;;
21444;SDS011;10883;51.946;20.140;2022-12-04T06:36:53;66.00;;;23.17;;
21444;SDS011;10883;51.946;20.140;2022-12-04T06:39:18;63.67;;;22.73;;
21444;SDS011;10883;51.946;20.140;2022-12-04T06:41:44;65.93;;;22.97;;
21444;SDS011;10883;51.946;20.140;2022-12-04T06:44:12;56.80;;;21.07;;
21444;SDS011;10883;51.946;20.140;2022-12-04T06:46:38;57.23;;;22.50;;
21444;SDS011;10883;51.946;20.140;2022-12-04T06:49:04;60.17;;;22.97;;
21444;SDS011;10883;51.946;20.140;2022-12-04T06:51:31;68.07;;;21.83;;
21444;SDS011;10883;51.946;20.140;2022-12-04T06:53:59;55.03;;;21.43;;
21444;SDS011;10883;51.946;20.140;2022-12-04T06:56:26;62.73;;;22.27;;
21444;SDS011;10883;51.946;20.140;2022-12-04T06:58:55;75.97;;;27.97;;
21444;SDS011;10883;51.946;20.140;2022-12-04T07:01:23;75.40;;;27.40;;
21444;SDS011;10883;51.946;20.140;2022-12-04T07:03:52;95.93;;;31.37;;
21444;SDS011;10883;51.946;20.140;2022-12-04T07:06:25;70.77;;;25.97;;
21444;SDS011;10883;51.946;20.140;2022-12-04T07:08:59;68.67;;;24.63;;
21444;SDS011;10883;51.946;20.140;2022-12-04T07:11:28;56.77;;;22.87;;
21444;SDS011;10883;51.946;20.140;2022-12-04T07:13:54;59.37;;;22.03;;
21444;SDS011;10883;51.946;20.140;2022-12-04T07:16:21;62.27;;;23.40;;
21444;SDS011;10883;51.946;20.140;2022-12-04T07:18:48;62.45;;;23.35;;
21444;SDS011;10883;51.946;20.140;2022-12-04T07:21:16;60.13;;;21.57;;
21444;SDS011;10883;51.946;20.140;2022-12-04T07:23:43;58.53;;;22.70;;
21444;SDS011;10883;51.946;20.140;2022-12-04T07:26:12;56.20;;;20.87;;
21444;SDS011;10883;51.946;20.140;2022-12-04T07:28:38;61.03;;;22.93;;
21444;SDS011;10883;51.946;20.140;2022-12-04T07:31:06;58.88;;;22.92;;
21444;SDS011;10883;51.946;20.140;2022-12-04T07:33:38;60.03;;;24.53;;
21444;SDS011;10883;51.946;20.140;2022-12-04T07:36:06;60.80;;;23.87;;
21444;SDS011;10883;51.946;20.140;2022-12-04T07:38:35;50.17;;;20.93;;
21444;SDS011;10883;51.946;20.140;2022-12-04T07:41:03;56.23;;;19.93;;
21444;SDS011;10883;51.946;20.140;2022-12-04T07:43:30;47.03;;;19.33;;
21444;SDS011;10883;51.946;20.140;2022-12-04T07:45:57;56.93;;;21.37;;
21444;SDS011;10883;51.946;20.140;2022-12-04T07:48:27;55.77;;;21.13;;
21444;SDS011;10883;51.946;20.140;2022-12-04T07:51:06;55.35;;;21.77;;
21444;SDS011;10883;51.946;20.140;2022-12-04T07:53:37;57.33;;;22.33;;
21444;SDS011;10883;51.946;20.140;2022-12-04T07:56:04;46.90;;;19.20;;
21444;SDS011;10883;51.946;20.140;2022-12-04T07:58:30;48.10;;;19.37;;
21444;SDS011;10883;51.946;20.140;2022-12-04T08:01:30;47.00;;;20.27;;
21444;SDS011;10883;51.946;20.140;2022-12-04T08:03:50;58.25;;;22.40;;
21444;SDS011;10883;51.946;20.140;2022-12-04T08:06:20;52.70;;;20.58;;
21444;SDS011;10883;51.946;20.140;2022-12-04T08:08:48;48.23;;;18.53;;
21444;SDS011;10883;51.946;20.140;2022-12-04T08:11:16;52.63;;;21.00;;
21444;SDS011;10883;51.946;20.140;2022-12-04T08:13:44;54.03;;;21.33;;
21444;SDS011;10883;51.946;20.140;2022-12-04T08:16:10;57.60;;;20.40;;
21444;SDS011;10883;51.946;20.140;2022-12-04T08:18:37;48.77;;;20.20;;
21444;SDS011;10883;51.946;20.140;2022-12-04T08:23:33;54.33;;;21.73;;
21444;SDS011;10883;51.946;20.140;2022-12-04T08:26:00;56.27;;;22.60;;
21444;SDS011;10883;51.946;20.140;2022-12-04T08:28:27;44.03;;;19.23;;
21444;SDS011;10883;51.946;20.140;2022-12-04T08:30:53;42.83;;;19.30;;
21444;SDS011;10883;51.946;20.140;2022-12-04T08:33:19;48.38;;;19.88;;
21444;SDS011;10883;51.946;20.140;2022-12-04T08:35:45;53.30;;;21.35;;
21444;SDS011;10883;51.946;20.140;2022-12-04T08:38:11;45.95;;;19.52;;
21444;SDS011;10883;51.946;20.140;2022-12-04T08:40:37;44.65;;;19.48;;
21444;SDS011;10883;51.946;20.140;2022-12-04T08:43:02;46.67;;;19.60;;
21444;SDS011;10883;51.946;20.140;2022-12-04T08:45:28;53.43;;;21.23;;
21444;SDS011;10883;51.946;20.140;2022-12-04T08:47:54;50.80;;;20.38;;
21444;SDS011;10883;51.946;20.140;2022-12-04T08:50:20;45.43;;;21.67;;
21444;SDS011;10883;51.946;20.140;2022-12-04T08:52:45;45.77;;;18.13;;
21444;SDS011;10883;51.946;20.140;2022-12-04T08:55:11;42.13;;;18.50;;
21444;SDS011;10883;51.946;20.140;2022-12-04T08:57:37;47.60;;;19.98;;
21444;SDS011;10883;51.946;20.140;2022-12-04T09:00:03;58.57;;;21.20;;
21444;SDS011;10883;51.946;20.140;2022-12-04T09:02:29;50.00;;;21.37;;
21444;SDS011;10883;51.946;20.140;2022-12-04T09:04:55;51.73;;;19.63;;
21444;SDS011;10883;51.946;20.140;2022-12-04T09:07:21;49.28;;;20.95;;
21444;SDS011;10883;51.946;20.140;2022-12-04T09:09:47;56.53;;;21.30;;
21444;SDS011;10883;51.946;20.140;2022-12-04T09:12:14;47.97;;;20.27;;
21444;SDS011;10883;51.946;20.140;2022-12-04T09:14:39;49.23;;;19.43;;
21444;SDS011;10883;51.946;20.140;2022-12-04T09:17:05;52.20;;;20.67;;
21444;SDS011;10883;51.946;20.140;2022-12-04T09:19:31;62.92;;;23.50;;
21444;SDS011;10883;51.946;20.140;2022-12-04T09:21:59;48.03;;;21.37;;
21444;SDS011;10883;51.946;20.140;2022-12-04T09:24:25;65.97;;;25.27;;
21444;SDS011;10883;51.946;20.140;2022-12-04T09:26:52;49.90;;;20.43;;
21444;SDS011;10883;51.946;20.140;2022-12-04T09:29:18;57.83;;;21.43;;
21444;SDS011;10883;51.946;20.140;2022-12-04T09:31:44;47.90;;;17.63;;
21444;SDS011;10883;51.946;20.140;2022-12-04T09:34:09;46.17;;;18.73;;
21444;SDS011;10883;51.946;20.140;2022-12-04T09:36:36;42.43;;;19.77;;
21444;SDS011;10883;51.946;20.140;2022-12-04T09:39:02;46.03;;;19.17;;
21444;SDS011;10883;51.946;20.140;2022-12-04T09:47:35;48.73;;;18.67;;
21444;SDS011;10883;51.946;20.140;2022-12-04T09:50:19;45.20;;;18.87;;
21444;SDS011;10883;51.946;20.140;2022-12-04T09:55:35;42.03;;;20.90;;
21444;SDS011;10883;51.946;20.140;2022-12-04T09:58:27;38.53;;;17.50;;
21444;SDS011;10883;51.946;20.140;2022-12-04T10:01:29;40.90;;;19.25;;
21444;SDS011;10883;51.946;20.140;2022-12-04T10:04:16;43.47;;;18.60;;
21444;SDS011;10883;51.946;20.140;2022-12-04T10:06:55;41.63;;;18.83;;
21444;SDS011;10883;51.946;20.140;2022-12-04T10:12:48;47.50;;;20.60;;
21444;SDS011;10883;51.946;20.140;2022-12-04T10:18:05;37.72;;;17.10;;
21444;SDS011;10883;51.946;20.140;2022-12-04T10:24:10;38.67;;;16.67;;
21444;SDS011;10883;51.946;20.140;2022-12-04T10:26:45;44.03;;;18.63;;
21444;SDS011;10883;51.946;20.140;2022-12-04T10:29:23;46.08;;;20.08;;
21444;SDS011;10883;51.946;20.140;2022-12-04T10:31:54;39.90;;;18.47;;
21444;SDS011;10883;51.946;20.140;2022-12-04T10:34:27;43.60;;;19.57;;
21444;SDS011;10883;51.946;20.140;2022-12-04T10:36:59;41.80;;;18.70;;
21444;SDS011;10883;51.946;20.140;2022-12-04T10:39:35;44.67;;;19.98;;
21444;SDS011;10883;51.946;20.140;2022-12-04T10:42:15;51.90;;;21.30;;
21444;SDS011;10883;51.946;20.140;2022-12-04T10:44:49;37.42;;;18.42;;
21444;SDS011;10883;51.946;20.140;2022-12-04T10:47:15;45.08;;;19.20;;
21444;SDS011;10883;51.946;20.140;2022-12-04T10:49:41;38.53;;;17.63;;
21444;SDS011;10883;51.946;20.140;2022-12-04T10:52:09;38.83;;;18.60;;
21444;SDS011;10883;51.946;20.140;2022-12-04T10:54:37;45.47;;;20.37;;
21444;SDS011;10883;51.946;20.140;2022-12-04T10:57:12;46.43;;;20.17;;
21444;SDS011;10883;51.946;20.140;2022-12-04T10:59:47;48.63;;;21.63;;
21444;SDS011;10883;51.946;20.140;2022-12-04T11:04:56;43.03;;;20.58;;
21444;SDS011;10883;51.946;20.140;2022-12-04T11:07:44;40.90;;;19.75;;
21444;SDS011;10883;51.946;20.140;2022-12-04T11:10:20;47.08;;;21.88;;
21444;SDS011;10883;51.946;20.140;2022-12-04T11:12:52;39.38;;;18.67;;
21444;SDS011;10883;51.946;20.140;2022-12-04T11:15:19;41.17;;;19.42;;
21444;SDS011;10883;51.946;20.140;2022-12-04T11:17:45;43.47;;;19.65;;
21444;SDS011;10883;51.946;20.140;2022-12-04T11:20:16;47.15;;;22.45;;
21444;SDS011;10883;51.946;20.140;2022-12-04T11:23:03;54.03;;;22.02;;
21444;SDS011;10883;51.946;20.140;2022-12-04T11:25:33;49.30;;;20.65;;
21444;SDS011;10883;51.946;20.140;2022-12-04T11:28:11;45.55;;;20.67;;
21444;SDS011;10883;51.946;20.140;2022-12-04T11:30:45;36.20;;;17.33;;
21444;SDS011;10883;51.946;20.140;2022-12-04T11:33:17;39.72;;;19.02;;
21444;SDS011;10883;51.946;20.140;2022-12-04T11:35:50;42.53;;;20.27;;
21444;SDS011;10883;51.946;20.140;2022-12-04T11:38:21;48.83;;;22.43;;
21444;SDS011;10883;51.946;20.140;2022-12-04T11:40:51;39.73;;;20.37;;
21444;SDS011;10883;51.946;20.140;2022-12-04T11:43:20;43.25;;;21.25;;
21444;SDS011;10883;51.946;20.140;2022-12-04T11:45:56;47.03;;;20.67;;
21444;SDS011;10883;51.946;20.140;2022-12-04T11:48:30;42.03;;;20.52;;
21444;SDS011;10883;51.946;20.140;2022-12-04T12:10:18;52.72;;;22.67;;
21444;SDS011;10883;51.946;20.140;2022-12-04T12:23:33;44.20;;;20.50;;
21444;SDS011;10883;51.946;20.140;2022-12-04T12:26:23;48.35;;;19.92;;
21444;SDS011;10883;51.946;20.140;2022-12-04T12:34:32;41.15;;;18.52;;
21444;SDS011;10883;51.946;20.140;2022-12-04T12:37:07;44.80;;;18.67;;
21444;SDS011;10883;51.946;20.140;2022-12-04T12:39:48;41.50;;;18.25;;
21444;SDS011;10883;51.946;20.140;2022-12-04T12:42:26;44.60;;;20.67;;
21444;SDS011;10883;51.946;20.140;2022-12-04T12:45:19;39.13;;;19.90;;
21444;SDS011;10883;51.946;20.140;2022-12-04T12:48:06;42.42;;;19.40;;
21444;SDS011;10883;51.946;20.140;2022-12-04T12:51:02;47.28;;;20.58;;
21444;SDS011;10883;51.946;20.140;2022-12-04T12:53:48;39.87;;;19.20;;
21444;SDS011;10883;51.946;20.140;2022-12-04T12:56:18;64.05;;;30.70;;
21444;SDS011;10883;51.946;20.140;2022-12-04T12:58:55;66.67;;;29.10;;
21444;SDS011;10883;51.946;20.140;2022-12-04T13:01:37;73.53;;;34.38;;
21444;SDS011;10883;51.946;20.140;2022-12-04T13:04:12;68.45;;;30.67;;
21444;SDS011;10883;51.946;20.140;2022-12-04T13:06:42;48.42;;;25.25;;
21444;SDS011;10883;51.946;20.140;2022-12-04T13:09:23;54.20;;;23.98;;
21444;SDS011;10883;51.946;20.140;2022-12-04T13:12:01;57.10;;;27.43;;
21444;SDS011;10883;51.946;20.140;2022-12-04T13:14:32;50.53;;;24.97;;
21444;SDS011;10883;51.946;20.140;2022-12-04T13:17:02;58.35;;;26.73;;
21444;SDS011;10883;51.946;20.140;2022-12-04T13:19:58;42.37;;;19.67;;
21444;SDS011;10883;51.946;20.140;2022-12-04T13:25:23;41.58;;;19.30;;
21444;SDS011;10883;51.946;20.140;2022-12-04T13:31:04;38.60;;;17.93;;
21444;SDS011;10883;51.946;20.140;2022-12-04T13:41:54;39.20;;;18.92;;
21444;SDS011;10883;51.946;20.140;2022-12-04T13:44:26;40.35;;;18.08;;
21444;SDS011;10883;51.946;20.140;2022-12-04T13:49:31;39.13;;;17.40;;
21444;SDS011;10883;51.946;20.140;2022-12-04T13:51:59;40.60;;;17.53;;
21444;SDS011;10883;51.946;20.140;2022-12-04T13:54:36;36.23;;;17.97;;
21444;SDS011;10883;51.946;20.140;2022-12-04T13:59:37;42.45;;;19.27;;
21444;SDS011;10883;51.946;20.140;2022-12-04T14:07:33;64.63;;;27.07;;
21444;SDS011;10883;51.946;20.140;2022-12-04T14:12:42;51.13;;;23.60;;
21444;SDS011;10883;51.946;20.140;2022-12-04T14:15:22;45.37;;;21.37;;
21444;SDS011;10883;51.946;20.140;2022-12-04T14:20:27;40.78;;;19.67;;
21444;SDS011;10883;51.946;20.140;2022-12-04T14:23:06;48.07;;;21.80;;
21444;SDS011;10883;51.946;20.140;2022-12-04T14:25:46;39.83;;;19.13;;
21444;SDS011;10883;51.946;20.140;2022-12-04T14:33:58;39.75;;;18.52;;
21444;SDS011;10883;51.946;20.140;2022-12-04T14:36:29;37.25;;;18.13;;
21444;SDS011;10883;51.946;20.140;2022-12-04T14:39:07;32.83;;;16.30;;
21444;SDS011;10883;51.946;20.140;2022-12-04T14:42:17;40.63;;;19.15;;
21444;SDS011;10883;51.946;20.140;2022-12-04T14:44:57;43.97;;;20.00;;
21444;SDS011;10883;51.946;20.140;2022-12-04T14:50:01;40.50;;;19.52;;
21444;SDS011;10883;51.946;20.140;2022-12-04T14:55:36;40.70;;;18.42;;
21444;SDS011;10883;51.946;20.140;2022-12-04T14:58:17;40.30;;;18.33;;
21444;SDS011;10883;51.946;20.140;2022-12-04T15:01:04;37.40;;;18.23;;
21444;SDS011;10883;51.946;20.140;2022-12-04T15:03:53;38.53;;;18.38;;
21444;SDS011;10883;51.946;20.140;2022-12-04T15:06:25;36.65;;;18.27;;
21444;SDS011;10883;51.946;20.140;2022-12-04T15:08:53;38.93;;;17.33;;
21444;SDS011;10883;51.946;20.140;2022-12-04T15:14:38;39.25;;;19.45;;
21444;SDS011;10883;51.946;20.140;2022-12-04T15:17:08;36.65;;;18.65;;
21444;SDS011;10883;51.946;20.140;2022-12-04T15:19:35;40.00;;;19.75;;
21444;SDS011;10883;51.946;20.140;2022-12-04T15:22:02;40.47;;;19.48;;
21444;SDS011;10883;51.946;20.140;2022-12-04T15:24:49;39.55;;;18.65;;
21444;SDS011;10883;51.946;20.140;2022-12-04T15:27:20;37.70;;;18.52;;
21444;SDS011;10883;51.946;20.140;2022-12-04T15:29:49;37.70;;;19.40;;
21444;SDS011;10883;51.946;20.140;2022-12-04T15:32:19;42.95;;;20.20;;
21444;SDS011;10883;51.946;20.140;2022-12-04T15:35:08;35.75;;;18.98;;
21444;SDS011;10883;51.946;20.140;2022-12-04T15:37:35;38.10;;;18.33;;
21444;SDS011;10883;51.946;20.140;2022-12-04T15:40:05;41.97;;;20.13;;
21444;SDS011;10883;51.946;20.140;2022-12-04T15:42:31;37.60;;;20.15;;
21444;SDS011;10883;51.946;20.140;2022-12-04T15:47:53;40.03;;;18.42;;
21444;SDS011;10883;51.946;20.140;2022-12-04T15:55:20;39.10;;;18.92;;
21444;SDS011;10883;51.946;20.140;2022-12-04T16:00:42;40.67;;;19.65;;
21444;SDS011;10883;51.946;20.140;2022-12-04T16:03:20;42.55;;;18.85;;
21444;SDS011;10883;51.946;20.140;2022-12-04T16:05:49;38.10;;;19.10;;
21444;SDS011;10883;51.946;20.140;2022-12-04T16:08:29;38.80;;;18.60;;
21444;SDS011;10883;51.946;20.140;2022-12-04T16:11:01;38.67;;;17.98;;
21444;SDS011;10883;51.946;20.140;2022-12-04T16:13:31;60.50;;;23.35;;
21444;SDS011;10883;51.946;20.140;2022-12-04T16:15:58;40.00;;;19.15;;
21444;SDS011;10883;51.946;20.140;2022-12-04T16:18:25;42.08;;;19.45;;
21444;SDS011;10883;51.946;20.140;2022-12-04T16:20:52;40.45;;;19.30;;
21444;SDS011;10883;51.946;20.140;2022-12-04T16:23:18;42.45;;;19.35;;
21444;SDS011;10883;51.946;20.140;2022-12-04T16:25:46;41.13;;;19.33;;
21444;SDS011;10883;51.946;20.140;2022-12-04T16:28:12;48.87;;;20.70;;
21444;SDS011;10883;51.946;20.140;2022-12-04T16:30:38;40.10;;;20.00;;
21444;SDS011;10883;51.946;20.140;2022-12-04T16:33:03;43.37;;;20.43;;
21444;SDS011;10883;51.946;20.140;2022-12-04T16:35:29;44.40;;;20.02;;
21444;SDS011;10883;51.946;20.140;2022-12-04T16:37:56;42.10;;;20.25;;
21444;SDS011;10883;51.946;20.140;2022-12-04T16:40:22;39.07;;;20.00;;
21444;SDS011;10883;51.946;20.140;2022-12-04T16:42:48;47.63;;;21.17;;
21444;SDS011;10883;51.946;20.140;2022-12-04T16:45:27;40.60;;;19.67;;
21444;SDS011;10883;51.946;20.140;2022-12-04T16:47:56;39.30;;;18.67;;
21444;SDS011;10883;51.946;20.140;2022-12-04T16:50:25;42.97;;;20.27;;
21444;SDS011;10883;51.946;20.140;2022-12-04T16:52:52;39.05;;;18.95;;
21444;SDS011;10883;51.946;20.140;2022-12-04T16:55:24;41.00;;;19.40;;
21444;SDS011;10883;51.946;20.140;2022-12-04T16:57:54;38.72;;;19.33;;